<?xml version='1.0' encoding='UTF-8'?><gpx version="1.1" creator="JPX - https://github.com/jenetics/jpx" xmlns="http://www.topografix.com/GPX/1/1"><trk><trkseg><trkpt lat="44.82170561091737" lon="9.199369365281457"><ele>406.0</ele><time>2026-04-30T12:35:47.001Z</time></trkpt><trkpt lat="44.82172876213756" lon="9.199282982621947"><ele>406.0</ele><time>2026-04-30T12:35:53.001Z</time></trkpt><trkpt lat="44.8217254942926" lon="9.199180073544893"><ele>406.0</ele><time>2026-04-30T12:35:58Z</time></trkpt><trkpt lat="44.82172797635163" lon="9.199080325955173"><ele>406.0</ele><time>2026-04-30T12:36:04Z</time></trkpt><trkpt lat="44.82173369165902" lon="9.1989878617254"><ele>406.0</ele><time>2026-04-30T12:36:09Z</time></trkpt><trkpt lat="44.82173969989762" lon="9.198897936926455"><ele>406.0</ele><time>2026-04-30T12:36:14Z</time></trkpt><trkpt lat="44.82176069812327" lon="9.198797060595805"><ele>406.0</ele><time>2026-04-30T12:36:20Z</time></trkpt><trkpt lat="44.82177574156556" lon="9.198703980596884"><ele>405.7142857142857</ele><time>2026-04-30T12:36:25Z</time></trkpt><trkpt lat="44.82179207068004" lon="9.198616994376343"><ele>405.42857142857144</ele><time>2026-04-30T12:36:30Z</time></trkpt><trkpt lat="44.821791105489524" lon="9.198523758705011"><ele>405.1428571428571</ele><time>2026-04-30T12:36:35Z</time></trkpt><trkpt lat="44.82179872674969" lon="9.198418297975437"><ele>404.8571428571429</ele><time>2026-04-30T12:36:41Z</time></trkpt><trkpt lat="44.82181701257145" lon="9.198316015901588"><ele>404.57142857142856</ele><time>2026-04-30T12:36:47Z</time></trkpt><trkpt lat="44.821815200751814" lon="9.198226595428343"><ele>404.2857142857143</ele><time>2026-04-30T12:36:52Z</time></trkpt><trkpt lat="44.82182933064227" lon="9.198138246281482"><ele>404.0</ele><time>2026-04-30T12:36:57Z</time></trkpt><trkpt lat="44.82184349532594" lon="9.198034492019065"><ele>404.57142857142856</ele><time>2026-04-30T12:37:03Z</time></trkpt><trkpt lat="44.82186276904216" lon="9.197935625129498"><ele>405.1428571428571</ele><time>2026-04-30T12:37:09Z</time></trkpt><trkpt lat="44.821852833537804" lon="9.19784474139508"><ele>405.7142857142857</ele><time>2026-04-30T12:37:14.001Z</time></trkpt><trkpt lat="44.821912379793126" lon="9.197804504773087"><ele>406.2857142857143</ele><time>2026-04-30T12:37:19.001Z</time></trkpt><trkpt lat="44.821985124423364" lon="9.197840030003967"><ele>406.8571428571429</ele><time>2026-04-30T12:37:24.001Z</time></trkpt><trkpt lat="44.82205252096489" lon="9.197851528903833"><ele>407.42857142857144</ele><time>2026-04-30T12:37:29.001Z</time></trkpt><trkpt lat="44.82212441017139" lon="9.197881815143418"><ele>408.0</ele><time>2026-04-30T12:37:35.001Z</time></trkpt><trkpt lat="44.82217949692051" lon="9.19793119782885"><ele>408.0</ele><time>2026-04-30T12:37:40Z</time></trkpt><trkpt lat="44.822233747254934" lon="9.197994851067069"><ele>408.0</ele><time>2026-04-30T12:37:45Z</time></trkpt><trkpt lat="44.82229833707664" lon="9.198018846841212"><ele>408.0</ele><time>2026-04-30T12:37:50Z</time></trkpt><trkpt lat="44.822363088985504" lon="9.19806095043457"><ele>408.0</ele><time>2026-04-30T12:37:55Z</time></trkpt><trkpt lat="44.82242120582727" lon="9.198115771325014"><ele>408.0</ele><time>2026-04-30T12:38:01Z</time></trkpt><trkpt lat="44.82247363534874" lon="9.198167437704004"><ele>408.0</ele><time>2026-04-30T12:38:06Z</time></trkpt><trkpt lat="44.82253896885287" lon="9.198192675851883"><ele>408.0</ele><time>2026-04-30T12:38:11Z</time></trkpt><trkpt lat="44.82259924641754" lon="9.1982361531504"><ele>408.2857142857143</ele><time>2026-04-30T12:38:16Z</time></trkpt><trkpt lat="44.82261632164307" lon="9.198330212410488"><ele>408.57142857142856</ele><time>2026-04-30T12:38:24Z</time></trkpt><trkpt lat="44.822586598554544" lon="9.198414967731425"><ele>408.8571428571429</ele><time>2026-04-30T12:38:29Z</time></trkpt><trkpt lat="44.82255742832208" lon="9.19851816957021"><ele>409.1428571428571</ele><time>2026-04-30T12:38:35Z</time></trkpt><trkpt lat="44.8225079880636" lon="9.198581400687619"><ele>409.4285714285714</ele><time>2026-04-30T12:38:41Z</time></trkpt><trkpt lat="44.82248124558918" lon="9.198662124464185"><ele>409.7142857142857</ele><time>2026-04-30T12:38:46Z</time></trkpt><trkpt lat="44.82249315725337" lon="9.198776830923686"><ele>410.0</ele><time>2026-04-30T12:38:51Z</time></trkpt><trkpt lat="44.8224687760897" lon="9.19888442527952"><ele>410.0</ele><time>2026-04-30T12:38:58Z</time></trkpt><trkpt lat="44.822444198404234" lon="9.19898551242726"><ele>410.0</ele><time>2026-04-30T12:39:04Z</time></trkpt><trkpt lat="44.82241367898893" lon="9.199072711794129"><ele>410.0</ele><time>2026-04-30T12:39:10Z</time></trkpt><trkpt lat="44.822382701152506" lon="9.199162331057988"><ele>410.0</ele><time>2026-04-30T12:39:16Z</time></trkpt><trkpt lat="44.822335113363465" lon="9.199230117487497"><ele>410.0</ele><time>2026-04-30T12:39:21Z</time></trkpt><trkpt lat="44.82232846099846" lon="9.199348320981237"><ele>410.0</ele><time>2026-04-30T12:39:27Z</time></trkpt><trkpt lat="44.822385765948674" lon="9.19941753616803"><ele>410.0</ele><time>2026-04-30T12:39:35Z</time></trkpt><trkpt lat="44.82246180042963" lon="9.199412420464686"><ele>410.2857142857143</ele><time>2026-04-30T12:39:41Z</time></trkpt><trkpt lat="44.82253830684728" lon="9.199415811773934"><ele>410.57142857142856</ele><time>2026-04-30T12:40:03Z</time></trkpt><trkpt lat="44.82260180807167" lon="9.199455000264763"><ele>410.85714285714283</ele><time>2026-04-30T12:40:09Z</time></trkpt><trkpt lat="44.822677242019815" lon="9.199473060340178"><ele>411.1428571428571</ele><time>2026-04-30T12:40:14Z</time></trkpt><trkpt lat="44.82271196744246" lon="9.19937022042242"><ele>411.42857142857144</ele><time>2026-04-30T12:40:21Z</time></trkpt><trkpt lat="44.82275080105609" lon="9.199289256056058"><ele>411.71428571428567</ele><time>2026-04-30T12:40:27Z</time></trkpt><trkpt lat="44.82277483462483" lon="9.199205447070732"><ele>412.0</ele><time>2026-04-30T12:40:36Z</time></trkpt><trkpt lat="44.822818655426225" lon="9.19911609558726"><ele>412.99999999999994</ele><time>2026-04-30T12:40:41Z</time></trkpt><trkpt lat="44.82284679528276" lon="9.199035422033047"><ele>414.0</ele><time>2026-04-30T12:40:47Z</time></trkpt><trkpt lat="44.82285308064419" lon="9.198933065708976"><ele>415.0</ele><time>2026-04-30T12:40:52Z</time></trkpt><trkpt lat="44.822856821599366" lon="9.198830763669434"><ele>416.0</ele><time>2026-04-30T12:40:58Z</time></trkpt><trkpt lat="44.82287770063562" lon="9.198743077667668"><ele>417.0</ele><time>2026-04-30T12:41:03Z</time></trkpt><trkpt lat="44.82287358128331" lon="9.19864748449702"><ele>417.99999999999994</ele><time>2026-04-30T12:41:09Z</time></trkpt><trkpt lat="44.82288193950472" lon="9.198542051278276"><ele>419.0</ele><time>2026-04-30T12:41:16Z</time></trkpt><trkpt lat="44.82288179969204" lon="9.198437846996896"><ele>418.99999999999994</ele><time>2026-04-30T12:41:23Z</time></trkpt><trkpt lat="44.822886790659275" lon="9.198336519934903"><ele>419.0</ele><time>2026-04-30T12:41:31Z</time></trkpt><trkpt lat="44.82289882662181" lon="9.198243221671401"><ele>419.0</ele><time>2026-04-30T12:41:36Z</time></trkpt><trkpt lat="44.82292530129525" lon="9.198155916999307"><ele>419.0</ele><time>2026-04-30T12:41:41Z</time></trkpt><trkpt lat="44.822940628380486" lon="9.198067538225226"><ele>419.0</ele><time>2026-04-30T12:41:46Z</time></trkpt><trkpt lat="44.8229887090244" lon="9.197970424853853"><ele>418.99999999999994</ele><time>2026-04-30T12:41:50.999Z</time></trkpt><trkpt lat="44.82297192999934" lon="9.197864416314406"><ele>419.0</ele><time>2026-04-30T12:41:56.999Z</time></trkpt><trkpt lat="44.822970328090946" lon="9.197755955885235"><ele>418.99999999999994</ele><time>2026-04-30T12:42:03.999Z</time></trkpt><trkpt lat="44.82302983930887" lon="9.197786993750157"><ele>419.0</ele><time>2026-04-30T12:42:16Z</time></trkpt><trkpt lat="44.823100022745116" lon="9.19780435525413"><ele>419.0</ele><time>2026-04-30T12:42:19Z</time></trkpt><trkpt lat="44.82317465504272" lon="9.197829878105257"><ele>419.0</ele><time>2026-04-30T12:42:24Z</time></trkpt><trkpt lat="44.82324606667822" lon="9.19782490741596"><ele>419.0</ele><time>2026-04-30T12:42:30Z</time></trkpt><trkpt lat="44.823307792203856" lon="9.197868420585161"><ele>418.99999999999994</ele><time>2026-04-30T12:42:35Z</time></trkpt><trkpt lat="44.82338579891137" lon="9.197884670758661"><ele>419.0</ele><time>2026-04-30T12:42:40Z</time></trkpt><trkpt lat="44.823417320716025" lon="9.197806526637708"><ele>419.0</ele><time>2026-04-30T12:42:44Z</time></trkpt></trkseg></trk></gpx>